Aérodrome :
LOGIN :

S'inscrire | Disclaimer

   EN    FR    IT 

 










Légende :    VFR   VFR Marginal   IFR   IFR Intensif   IFR Très Intensif
Visi : 
Plafond : 
>= 8 km
>= 3000ft
5 à 8 km
1000 à 3000 ft
1500m à 5 km
500 à 1000 ft
800 à 1500m
200 à 500 ft
< 800m
< 200 ft
Symboles :   Orages  Brouillard  Fortes neiges  Fortes précipitations  Vent > 20 kt
SIGMETs :   Divers  Orages  Givrage  Turbulence  Onde Orograph.  Cendres Volcan.






- Altitude de l'aérodrome : 172 ft
- Code IATA : LPI


ESSL - Saab

DERNIER METAR :
  • 050850Z AUTO 04003KT 0250 R11/0800N R29/0600U FG SCT001/// OVC003/// 03/03 Q1005

METARs EXPIRÉS :
  • 050820Z AUTO 05001KT 0150 R11/0400N R29/0400N FG VV003 03/03 Q1005
  • 050750Z AUTO 00000KT 0100 R11/0400N R29/0400N FG VV002 03/03 Q1005
  • 050720Z AUTO 00000KT 0150 R11/0450N R29/0550N FG VV002 03/03 Q1005
  • 050650Z AUTO 14002KT 0100 R11/0450N R29/0450N FG VV001 03/03 Q1005
  • 050620Z AUTO 13004KT 0100 R11/0550N R29/0500N FG VV002 03/02 Q1004
  • 050550Z 15003KT 0700 R11/P2000N R29/P2000N VV002 03/03 Q1004

Prévision TAF périmée.



MET'MAP, la Météo Aéronautique d'un coup d'oeil ! - Copyright ORBIFLY Décembre 2007 - Disclaimer

ORBIFLY MET'MAP TEAM :

Programmation & Développement : Alexandra Zaïnal
Sur une idée originale de : Baudouin d'Aumeries
Assistance à la programmation : Marc-Olivier Méhu
Soutien technique & logistique : Manuel Goepfert

Contact : metmap@orbifly.com




SOURCES & CREDITS :

   NOAA